Terminal Aerodrome Forecast
Issued by NWS Charleston, WV

Current Version | Previous Version | Text Only | Print | Product List | Glossary Off
Versions: 1 2 3 4 5 6 7 8 9 10 11 12 13 14 15 16 17 18 19 20 21 22 23 24 25 26 27

000
FTUS41 KRLX 200200 AAA
TAFCRW
TAF AMD
KCRW 200223Z 2002/2024 00000KT P6SM SCT250
     FM200900 00000KT 6SM BR FEW001 SCT025 BKN250
     FM201400 22007KT P6SM BKN250
     FM201900 22008G15KT P6SM BKN100=

USA.gov is the U.S. government's official web portal to all federal, state and local government web resources and services.